Time;durP1;ratioP1;P1;durP2;ratioP2;P2;SDS_P1;SDS_P2;PMS_P1;PMS_P2;Temp;Humidity;BMP_temperature;BMP_pressure;BME280_temperature;BME280_humidity;BME280_pressure;Samples;Min_cycle;Max_cycle;Signal;HPM_P1;HPM_P2
2021/09/06 00:00:50;;;;;;;33.63;19.40;;;;;;;11.53;100.00;101699.72;5004928;28;20054;-87
2021/09/06 00:03:17;;;;;;;34.72;20.15;;;;;;;11.54;100.00;101696.25;4991307;28;20092;-85
2021/09/06 00:05:44;;;;;;;34.55;20.33;;;;;;;11.53;100.00;101696.25;4999783;28;20073;-84
2021/09/06 00:08:11;;;;;;;34.17;19.90;;;;;;;11.53;100.00;101706.72;4977128;28;20049;-83
2021/09/06 00:10:41;;;;;;;29.90;19.23;;;;;;;11.52;100.00;101704.97;4989228;28;20202;-85
2021/09/06 00:13:13;;;;;;;30.40;19.27;;;;;;;11.48;100.00;101700.59;4996386;28;20037;-85
2021/09/06 00:15:41;;;;;;;37.17;20.65;;;;;;;11.45;100.00;101690.09;4987019;28;20614;-87
2021/09/06 00:18:09;;;;;;;32.80;18.95;;;;;;;11.42;100.00;101697.06;4998875;28;20037;-83
2021/09/06 00:20:39;;;;;;;34.03;19.65;;;;;;;11.44;100.00;101696.22;4988217;28;20064;-87
2021/09/06 00:23:06;;;;;;;28.52;18.02;;;;;;;11.41;100.00;101692.69;5009133;28;20560;-85
2021/09/06 00:25:34;;;;;;;33.85;18.33;;;;;;;11.38;100.00;101689.19;4996030;28;20045;-86
2021/09/06 00:28:02;;;;;;;28.95;18.17;;;;;;;11.35;100.00;101697.03;4997446;28;20045;-84
2021/09/06 00:30:29;;;;;;;29.42;17.98;;;;;;;11.31;100.00;101695.28;4990509;28;20042;-87
2021/09/06 00:32:56;;;;;;;32.65;17.33;;;;;;;11.28;100.00;101698.75;4990845;28;21064;-87
2021/09/06 00:35:22;;;;;;;29.17;18.10;;;;;;;11.29;100.00;101705.75;4976533;28;20064;-88
2021/09/06 00:37:49;;;;;;;30.10;19.13;;;;;;;11.28;100.00;101700.47;4974200;28;20057;-88
2021/09/06 00:40:16;;;;;;;36.50;19.63;;;;;;;11.27;100.00;101699.63;4997558;28;20747;-86
2021/09/06 00:42:43;;;;;;;35.80;18.88;;;;;;;11.27;100.00;101697.00;4999012;28;20156;-88
2021/09/06 00:45:11;;;;;;;28.88;18.13;;;;;;;11.27;100.00;101697.00;4989442;28;20049;-84
2021/09/06 00:47:39;;;;;;;27.63;16.63;;;;;;;11.24;100.00;101689.13;4978552;28;20081;-83
2021/09/06 00:50:09;;;;;;;30.77;19.02;;;;;;;11.22;100.00;101690.84;4991938;28;20115;-86
2021/09/06 00:52:38;;;;;;;30.55;17.75;;;;;;;11.21;100.00;101689.09;4978144;28;20041;-83
2021/09/06 00:55:06;;;;;;;30.83;18.88;;;;;;;11.20;100.00;101688.25;4973451;28;22166;-84
2021/09/06 00:57:33;;;;;;;30.60;19.20;;;;;;;11.18;100.00;101691.72;5002222;28;20504;-87
2021/09/06 01:00:00;;;;;;;31.38;19.05;;;;;;;11.16;100.00;101690.81;4990450;28;20149;-84
2021/09/06 01:02:27;;;;;;;31.70;17.83;;;;;;;11.14;100.00;101690.81;4982830;28;20049;-83
2021/09/06 01:04:53;;;;;;;30.23;18.73;;;;;;;11.13;100.00;101688.19;4988598;28;20053;-89
2021/09/06 01:07:20;;;;;;;30.35;17.55;;;;;;;11.12;100.00;101697.81;4972545;28;20049;-83
2021/09/06 01:09:47;;;;;;;34.50;20.48;;;;;;;11.11;100.00;101692.53;5005950;28;20034;-86
2021/09/06 01:12:14;;;;;;;27.48;17.17;;;;;;;11.08;100.00;101693.41;4973022;28;20042;-84
2021/09/06 01:14:41;;;;;;;29.65;18.85;;;;;;;11.06;100.00;101688.16;4983798;28;20130;-84
2021/09/06 01:17:08;;;;;;;31.08;18.35;;;;;;;11.05;100.00;101688.16;4972183;28;20046;-88
2021/09/06 01:19:36;;;;;;;29.63;17.17;;;;;;;11.03;100.00;101692.50;4973694;28;20087;-85
2021/09/06 01:22:02;;;;;;;29.23;19.08;;;;;;;11.01;100.00;101697.72;4984254;28;20788;-83
2021/09/06 01:24:29;;;;;;;30.23;18.17;;;;;;;10.99;100.00;101701.19;4989660;28;20622;-85
2021/09/06 01:26:56;;;;;;;29.55;17.85;;;;;;;10.97;100.00;101695.97;4984664;28;20045;-82
2021/09/06 01:29:23;;;;;;;35.40;18.02;;;;;;;10.96;100.00;101696.81;4985641;28;20046;-87
2021/09/06 01:31:50;;;;;;;29.27;18.77;;;;;;;10.95;100.00;101692.47;4986341;28;20057;-87
2021/09/06 01:34:16;;;;;;;30.88;19.00;;;;;;;10.95;100.00;101694.19;5007812;28;20048;-85
2021/09/06 01:36:43;;;;;;;28.23;19.25;;;;;;;10.89;100.00;101697.66;4988430;28;21315;-87
2021/09/06 01:39:10;;;;;;;35.53;19.83;;;;;;;10.86;100.00;101689.75;4985572;28;20514;-86
2021/09/06 01:41:37;;;;;;;28.60;16.40;;;;;;;10.83;100.00;101695.84;4986724;28;20049;-86
2021/09/06 01:44:04;;;;;;;39.40;21.23;;;;;;;10.80;100.00;101685.38;4988787;28;20520;-85
2021/09/06 01:46:33;;;;;;;35.20;21.58;;;;;;;10.79;100.00;101682.75;4985913;28;20056;-85
2021/09/06 01:49:00;;;;;;;35.45;19.45;;;;;;;10.76;100.00;101681.84;4990516;28;20057;-86
2021/09/06 01:51:30;;;;;;;35.10;20.98;;;;;;;10.74;100.00;101682.72;4987718;28;20044;-83
2021/09/06 01:53:58;;;;;;;38.28;21.10;;;;;;;10.72;100.00;101681.84;4992626;28;20042;-83
2021/09/06 01:56:24;;;;;;;39.80;21.63;;;;;;;10.71;100.00;101687.94;4990595;28;20499;-87
2021/09/06 01:58:52;;;;;;;35.25;18.23;;;;;;;10.68;100.00;101680.06;4994476;28;20076;-88
2021/09/06 02:01:19;;;;;;;33.22;19.17;;;;;;;10.66;100.00;101685.28;4990915;28;20076;-87
2021/09/06 02:03:45;;;;;;;36.88;20.25;;;;;;;10.64;100.00;101683.50;4967349;28;20056;-86
2021/09/06 02:06:12;;;;;;;34.25;19.83;;;;;;;10.62;100.00;101686.13;4991207;28;20033;-85
2021/09/06 02:08:39;;;;;;;32.75;19.52;;;;;;;10.59;100.00;101689.59;4986153;28;20068;-84
2021/09/06 02:11:06;;;;;;;31.65;18.45;;;;;;;10.55;100.00;101681.72;4976300;28;20575;-86
2021/09/06 02:13:33;;;;;;;27.83;16.90;;;;;;;10.51;100.00;101688.66;4991994;28;20627;-83
2021/09/06 02:16:00;;;;;;;29.75;16.63;;;;;;;10.46;100.00;101685.13;4984797;28;21144;-83
2021/09/06 02:18:26;;;;;;;27.50;16.50;;;;;;;10.45;100.00;101679.88;4999219;28;20103;-87
2021/09/06 02:20:53;;;;;;;34.92;20.02;;;;;;;10.43;100.00;101685.97;4989934;28;20041;-88
2021/09/06 02:23:21;;;;;;;30.63;17.90;;;;;;;10.39;100.00;101688.53;4989370;28;20614;-86
2021/09/06 02:25:48;;;;;;;34.08;18.50;;;;;;;10.37;100.00;101685.06;4999256;28;20983;-86
2021/09/06 02:28:14;;;;;;;37.72;20.77;;;;;;;10.35;100.00;101690.28;4990086;28;20123;-86
2021/09/06 02:30:41;;;;;;;36.97;20.67;;;;;;;10.33;100.00;101688.47;4991417;28;20073;-86
2021/09/06 02:33:07;;;;;;;37.83;20.35;;;;;;;10.34;100.00;101692.81;4991958;28;20377;-84
2021/09/06 02:35:34;;;;;;;42.05;21.55;;;;;;;10.36;100.00;101688.53;4989601;28;20136;-89
2021/09/06 02:38:02;;;;;;;48.38;22.75;;;;;;;10.36;100.00;101696.38;4992771;28;20044;-87
2021/09/06 02:40:28;;;;;;;46.50;24.30;;;;;;;10.37;100.00;101692.91;4986138;28;20802;-85
2021/09/06 02:42:55;;;;;;;42.30;22.17;;;;;;;10.32;100.00;101692.81;4990295;28;20053;-85
2021/09/06 02:45:22;;;;;;;47.95;23.55;;;;;;;10.29;100.00;101687.56;4985737;28;20078;-87
2021/09/06 02:47:49;;;;;;;45.67;21.88;;;;;;;10.26;100.00;101684.94;4993914;28;20516;-87
2021/09/06 02:50:17;;;;;;;29.75;17.95;;;;;;;10.20;100.00;101679.63;4987885;28;20103;-86
2021/09/06 02:52:44;;;;;;;30.58;18.02;;;;;;;10.15;100.00;101678.72;4968654;28;20046;-88
2021/09/06 02:55:11;;;;;;;30.08;16.42;;;;;;;10.12;100.00;101676.94;4994107;28;20056;-89
2021/09/06 02:57:37;;;;;;;28.15;17.67;;;;;;;10.08;100.00;101676.03;4988938;28;20691;-87
2021/09/06 03:00:05;;;;;;;40.58;18.02;;;;;;;10.07;100.00;101671.66;4977677;28;20053;-89
2021/09/06 03:02:32;;;;;;;29.55;15.93;;;;;;;10.03;100.00;101676.88;4989911;28;20049;-84
2021/09/06 03:04:59;;;;;;;30.50;15.75;;;;;;;9.98;100.00;101670.72;4993514;28;20053;-89
2021/09/06 03:07:26;;;;;;;26.77;14.38;;;;;;;9.92;100.00;101680.25;5003256;28;20042;-82
2021/09/06 03:09:53;;;;;;;24.75;14.23;;;;;;;9.87;100.00;101681.94;4988171;28;20053;-86
2021/09/06 03:12:23;;;;;;;20.33;12.40;;;;;;;9.83;100.00;101671.41;4990395;28;20931;-87
2021/09/06 03:14:50;;;;;;;27.73;15.30;;;;;;;9.84;100.00;101675.78;4988725;28;20153;-86
2021/09/06 03:17:16;;;;;;;30.83;15.95;;;;;;;9.84;100.00;101681.91;4991093;28;20060;-84
2021/09/06 03:19:43;;;;;;;28.55;15.73;;;;;;;9.86;100.00;101674.94;4992112;28;20128;-83
2021/09/06 03:22:10;;;;;;;29.10;16.73;;;;;;;9.89;100.00;101671.50;4987176;28;20075;-86
2021/09/06 03:24:37;;;;;;;29.58;15.27;;;;;;;9.88;100.00;101673.25;4996432;28;20057;-83
2021/09/06 03:27:04;;;;;;;25.98;13.55;;;;;;;9.92;100.00;101675.03;4973246;28;20353;-85
2021/09/06 03:29:30;;;;;;;29.73;13.95;;;;;;;9.97;100.00;101672.44;4976414;28;20045;-88
2021/09/06 03:31:57;;;;;;;40.55;14.13;;;;;;;10.00;100.00;101668.97;4989880;28;20091;-83
2021/09/06 03:34:24;;;;;;;26.20;13.68;;;;;;;10.01;100.00;101675.97;4972051;28;20045;-89
2021/09/06 03:36:50;;;;;;;29.17;13.07;;;;;;;10.02;100.00;101675.97;5009999;28;20051;-86
2021/09/06 03:39:18;;;;;;;24.65;12.45;;;;;;;10.05;100.00;101677.75;4973000;28;20049;-86
2021/09/06 03:41:45;;;;;;;25.25;11.48;;;;;;;10.06;100.00;101672.56;4968010;28;20054;-88
2021/09/06 03:44:12;;;;;;;33.80;12.35;;;;;;;10.10;100.00;101676.06;4961872;28;20052;-84
2021/09/06 03:46:39;;;;;;;25.48;11.05;;;;;;;10.09;100.00;101677.81;4987476;28;20068;-87
2021/09/06 03:49:06;;;;;;;29.35;13.18;;;;;;;10.11;100.00;101683.03;4991303;28;20073;-82
2021/09/06 03:51:32;;;;;;;32.08;12.32;;;;;;;10.12;100.00;101683.91;4971343;28;20044;-87
2021/09/06 03:53:59;;;;;;;23.70;12.10;;;;;;;10.10;100.00;101681.28;4989715;28;20053;-84
2021/09/06 03:56:33;;;;;;;28.83;11.75;;;;;;;10.14;100.00;101684.81;4992870;28;20037;-81
2021/09/06 03:58:59;;;;;;;20.17;12.43;;;;;;;10.14;100.00;101693.53;4993310;28;20853;-88
2021/09/06 04:01:26;;;;;;;31.63;14.05;;;;;;;10.17;100.00;101688.34;4987019;28;20076;-87
2021/09/06 04:03:53;;;;;;;28.08;12.45;;;;;;;10.17;100.00;101683.09;4986244;28;20901;-85
2021/09/06 04:06:20;;;;;;;23.05;11.30;;;;;;;10.19;100.00;101685.72;4990260;28;20057;-87
2021/09/06 04:08:46;;;;;;;20.15;12.50;;;;;;;10.19;100.00;101696.19;4969367;28;20073;-86
2021/09/06 04:11:13;;;;;;;27.25;12.13;;;;;;;10.22;100.00;101690.97;4976634;28;20384;-85
2021/09/06 04:13:41;;;;;;;25.25;13.10;;;;;;;10.21;100.00;101690.13;4990594;28;20053;-84
2021/09/06 04:16:08;;;;;;;29.55;13.63;;;;;;;10.20;100.00;101696.22;4983691;28;20049;-89
2021/09/06 04:18:35;;;;;;;26.95;13.65;;;;;;;10.17;100.00;101690.06;4967525;28;21493;-86
2021/09/06 04:21:02;;;;;;;22.95;13.02;;;;;;;10.10;100.00;101705.72;4985911;28;20500;-87
2021/09/06 04:23:29;;;;;;;22.88;11.55;;;;;;;10.07;100.00;101696.97;4979617;28;20107;-85
2021/09/06 04:25:55;;;;;;;22.60;12.05;;;;;;;10.05;100.00;101703.91;4997659;28;20041;-83
2021/09/06 04:28:22;;;;;;;26.00;13.18;;;;;;;10.02;100.00;101699.50;4993925;28;20048;-87
2021/09/06 04:30:49;;;;;;;21.02;11.93;;;;;;;9.98;100.00;101708.19;4993601;28;20471;-85
2021/09/06 04:33:15;;;;;;;22.65;12.05;;;;;;;9.94;100.00;101709.91;4972292;28;20050;-88
2021/09/06 04:35:42;;;;;;;25.25;12.68;;;;;;;9.96;100.00;101714.28;4970394;28;20057;-85
2021/09/06 04:38:09;;;;;;;21.65;12.82;;;;;;;9.99;100.00;101715.19;4991652;28;20044;-89
2021/09/06 04:40:35;;;;;;;20.83;12.90;;;;;;;10.02;100.00;101707.38;4990265;28;20049;-87
2021/09/06 04:43:05;;;;;;;25.80;13.50;;;;;;;10.06;100.00;101708.28;4991546;28;20431;-89
2021/09/06 04:45:31;;;;;;;35.53;14.73;;;;;;;10.07;100.00;101708.28;4985924;28;20558;-86
2021/09/06 04:47:58;;;;;;;27.13;12.68;;;;;;;10.09;100.00;101703.97;4992927;28;20086;-87
2021/09/06 04:50:25;;;;;;;24.50;12.40;;;;;;;10.12;100.00;101713.59;5010877;28;20053;-87
2021/09/06 04:52:55;;;;;;;26.85;11.52;;;;;;;10.15;100.00;101720.59;4970313;28;20041;-84
2021/09/06 04:55:23;;;;;;;22.73;11.32;;;;;;;10.17;100.00;101711.00;4993864;28;20076;-86
2021/09/06 04:57:49;;;;;;;20.42;11.13;;;;;;;10.16;100.00;101715.34;4989126;28;20042;-87
2021/09/06 05:00:16;;;;;;;23.40;10.57;;;;;;;10.17;100.00;101717.13;4998543;28;20077;-87
2021/09/06 05:02:43;;;;;;;19.25;11.63;;;;;;;10.17;100.00;101721.47;4995483;28;20260;-85
2021/09/06 05:05:11;;;;;;;31.75;11.77;;;;;;;10.17;100.00;101719.75;4988722;28;20055;-86
2021/09/06 05:07:39;;;;;;;21.17;11.13;;;;;;;10.18;100.00;101718.00;5011187;28;20294;-84
2021/09/06 05:10:07;;;;;;;24.73;13.18;;;;;;;10.21;100.00;101718.91;4987480;28;20141;-84
2021/09/06 05:12:33;;;;;;;33.13;12.38;;;;;;;10.27;100.00;101718.06;4992638;28;20045;-85
2021/09/06 05:15:00;;;;;;;25.30;12.38;;;;;;;10.29;100.00;101721.59;5009184;28;20121;-87
2021/09/06 05:17:27;;;;;;;19.92;11.40;;;;;;;10.34;100.00;101721.63;4993418;28;20060;-88
2021/09/06 05:19:54;;;;;;;25.10;12.95;;;;;;;10.37;100.00;101724.31;4980314;28;20119;-86
2021/09/06 05:22:23;;;;;;;31.00;11.65;;;;;;;10.41;100.00;101728.72;4989338;28;20449;-87
2021/09/06 05:24:53;;;;;;;23.33;12.00;;;;;;;10.43;100.00;101727.88;4993524;28;20049;-85
2021/09/06 05:27:21;;;;;;;17.90;11.65;;;;;;;10.47;100.00;101731.41;4991810;28;20065;-89
2021/09/06 05:29:49;;;;;;;15.75;10.65;;;;;;;10.54;100.00;101734.94;4980914;28;20050;-86
2021/09/06 05:32:16;;;;;;;41.22;13.10;;;;;;;10.56;100.00;101736.69;5005421;28;20060;-89
2021/09/06 05:34:43;;;;;;;38.92;11.68;;;;;;;10.57;100.00;101737.56;5000607;28;20048;-84
2021/09/06 05:37:10;;;;;;;28.13;11.52;;;;;;;10.57;100.00;101740.19;4996588;28;20160;-88
2021/09/06 05:39:36;;;;;;;24.52;11.18;;;;;;;10.59;100.00;101741.97;4991936;28;20056;-84
2021/09/06 05:42:04;;;;;;;23.33;11.77;;;;;;;10.62;100.00;101741.09;4973722;28;20427;-88
2021/09/06 05:44:31;;;;;;;15.13;9.43;;;;;;;10.65;100.00;101741.16;4994622;28;20950;-83
2021/09/06 05:46:58;;;;;;;18.05;9.68;;;;;;;10.71;100.00;101745.56;4992729;28;20042;-87
2021/09/06 05:49:25;;;;;;;20.08;9.23;;;;;;;10.75;100.00;101740.38;4996653;28;20091;-86
2021/09/06 05:51:52;;;;;;;26.67;11.55;;;;;;;10.78;100.00;101747.38;4977830;28;20045;-88
2021/09/06 05:54:19;;;;;;;25.55;9.13;;;;;;;10.78;100.00;101744.75;4995006;28;20050;-83
2021/09/06 05:56:46;;;;;;;16.92;10.27;;;;;;;10.82;100.00;101749.13;4998960;28;20465;-83
2021/09/06 05:59:12;;;;;;;12.05;8.88;;;;;;;10.88;100.00;101749.16;4993140;28;20042;-85
2021/09/06 06:01:39;;;;;;;21.10;8.85;;;;;;;10.96;100.00;101749.22;4991735;28;20531;-89
2021/09/06 06:04:05;;;;;;;14.68;8.60;;;;;;;10.99;100.00;101744.03;4997702;28;20041;-84
2021/09/06 06:06:32;;;;;;;13.00;7.82;;;;;;;11.04;100.00;101749.28;5000091;28;20052;-87
2021/09/06 06:09:02;;;;;;;16.05;9.05;;;;;;;11.06;100.00;101745.81;4998667;28;20049;-86
2021/09/06 06:11:28;;;;;;;15.27;7.55;;;;;;;11.10;100.00;101751.94;4996420;28;20065;-90
2021/09/06 06:13:55;;;;;;;13.48;6.38;;;;;;;11.12;100.00;101755.47;5005289;28;20045;-88
2021/09/06 06:16:21;;;;;;;13.88;7.18;;;;;;;11.13;100.00;101756.31;5002623;28;20045;-88
2021/09/06 06:18:48;;;;;;;10.07;6.07;;;;;;;11.15;100.00;101758.09;5006980;28;20079;-83
2021/09/06 06:21:17;;;;;;;19.30;8.98;;;;;;;11.23;100.00;101760.75;5005045;28;20050;-90
2021/09/06 06:23:44;;;;;;;12.00;7.32;;;;;;;11.30;100.00;101759.06;5001812;28;20103;-84
2021/09/06 06:26:10;;;;;;;14.38;7.57;;;;;;;11.43;100.00;101755.63;4999963;28;20148;-86
2021/09/06 06:28:37;;;;;;;16.45;8.02;;;;;;;11.53;100.00;101756.56;5011872;28;20049;-90
2021/09/06 06:31:04;;;;;;;13.73;8.05;;;;;;;11.59;100.00;101749.59;5001156;28;20045;-84
2021/09/06 06:33:30;;;;;;;11.70;7.88;;;;;;;11.66;100.00;101760.97;5006676;28;20045;-88
2021/09/06 06:36:02;;;;;;;16.60;8.30;;;;;;;11.77;100.00;101758.41;4990370;28;20041;-89
2021/09/06 06:38:30;;;;;;;10.93;7.75;;;;;;;11.87;100.00;101762.81;4991293;28;20073;-87
2021/09/06 06:40:56;;;;;;;15.13;9.00;;;;;;;11.92;100.00;101757.59;4997520;28;20549;-91
2021/09/06 06:43:23;;;;;;;16.40;9.75;;;;;;;11.90;100.00;101770.72;5001460;28;20404;-89
2021/09/06 06:45:50;;;;;;;9.95;7.50;;;;;;;11.86;100.00;101762.81;4994089;28;20113;-87
2021/09/06 06:48:20;;;;;;;14.52;8.65;;;;;;;11.88;100.00;101759.31;4998359;28;20053;-84
2021/09/06 06:50:46;;;;;;;11.23;7.05;;;;;;;12.01;100.00;101769.91;4998650;28;20103;-87
2021/09/06 06:53:13;;;;;;;13.65;9.32;;;;;;;12.16;100.00;101766.44;4979123;28;21176;-81
2021/09/06 06:55:40;;;;;;;19.20;10.35;;;;;;;12.35;99.54;101775.22;4996198;28;20047;-84
2021/09/06 06:58:06;;;;;;;16.35;8.80;;;;;;;12.48;98.94;101770.88;4994540;28;20042;-85
2021/09/06 07:00:33;;;;;;;16.52;9.45;;;;;;;12.58;98.46;101767.38;5015400;28;20132;-86
2021/09/06 07:03:00;;;;;;;16.73;9.73;;;;;;;12.68;98.05;101779.63;4997760;28;20482;-87
2021/09/06 07:05:27;;;;;;;19.90;11.23;;;;;;;12.80;97.19;101775.25;4989626;28;20061;-87
2021/09/06 07:07:54;;;;;;;14.68;9.68;;;;;;;12.93;97.11;101766.47;4997331;28;20136;-82
2021/09/06 07:10:24;;;;;;;16.25;9.88;;;;;;;13.12;96.80;101780.47;4978821;28;20506;-87
2021/09/06 07:12:51;;;;;;;15.88;11.38;;;;;;;13.28;95.67;101778.69;4998527;28;21452;-84
2021/09/06 07:15:18;;;;;;;14.00;9.38;;;;;;;13.40;95.06;101783.06;4990482;28;20676;-87
2021/09/06 07:17:44;;;;;;;16.88;11.07;;;;;;;13.46;94.43;101775.19;4990432;28;20173;-88
2021/09/06 07:20:12;;;;;;;18.90;12.65;;;;;;;13.44;94.44;101781.31;4997045;28;20119;-85
2021/09/06 07:22:38;;;;;;;15.73;10.95;;;;;;;13.51;94.64;101778.66;4987681;28;20527;-89
2021/09/06 07:25:06;;;;;;;19.42;11.90;;;;;;;13.77;94.45;101787.38;4995956;28;20045;-83
2021/09/06 07:27:35;;;;;;;18.90;11.70;;;;;;;14.14;93.31;101781.91;4981498;28;20060;-84
2021/09/06 07:30:07;;;;;;;13.52;10.15;;;;;;;14.53;91.79;101774.63;5009934;28;20059;-88
2021/09/06 07:32:33;;;;;;;15.98;10.93;;;;;;;14.82;90.62;101786.72;4996615;28;20034;-82
2021/09/06 07:35:00;;;;;;;17.33;11.93;;;;;;;14.92;89.79;101780.50;4992801;28;20203;-90
2021/09/06 07:37:27;;;;;;;20.15;12.52;;;;;;;14.91;89.15;101786.66;4995136;28;20095;-85
2021/09/06 07:39:54;;;;;;;20.85;12.10;;;;;;;14.91;89.21;101789.28;5004229;28;20045;-81
2021/09/06 07:42:21;;;;;;;17.58;12.68;;;;;;;15.11;88.72;101786.47;5023474;28;20060;-83
2021/09/06 07:44:47;;;;;;;17.55;11.93;;;;;;;15.54;87.17;101791.28;4999781;28;20124;-86
2021/09/06 07:47:14;;;;;;;18.15;12.70;;;;;;;15.92;85.52;101801.44;4993997;28;20072;-82
2021/09/06 07:49:43;;;;;;;15.98;11.40;;;;;;;16.51;83.38;101791.78;5020033;28;20054;-86
2021/09/06 07:52:10;;;;;;;16.25;11.93;;;;;;;17.11;80.31;101800.53;5001888;28;20107;-82
2021/09/06 07:54:36;;;;;;;19.27;13.02;;;;;;;17.52;78.47;101790.06;4978597;28;20365;-85
2021/09/06 07:57:03;;;;;;;17.10;13.20;;;;;;;18.06;76.46;101794.28;5000349;28;20503;-83
2021/09/06 07:59:30;;;;;;;17.40;12.68;;;;;;;18.68;74.15;101795.47;4997831;28;20067;-83
2021/09/06 08:01:57;;;;;;;15.85;12.07;;;;;;;19.28;71.50;101799.28;5012819;28;20519;-89
2021/09/06 08:04:26;;;;;;;19.65;13.18;;;;;;;19.95;68.91;101800.09;5001569;28;20069;-89
2021/09/06 08:06:52;;;;;;;17.13;11.65;;;;;;;20.54;66.24;101792.97;4999376;28;20114;-85
2021/09/06 08:09:19;;;;;;;15.48;12.55;;;;;;;21.05;63.70;101789.47;5000825;28;20037;-84
2021/09/06 08:11:48;;;;;;;17.05;12.88;;;;;;;21.46;61.93;101794.25;5003584;28;20651;-84
2021/09/06 08:14:16;;;;;;;19.77;13.68;;;;;;;21.74;60.55;101796.78;4995135;28;20128;-85
2021/09/06 08:16:43;;;;;;;18.77;11.57;;;;;;;22.05;58.88;101789.44;4974321;28;20140;-84
2021/09/06 08:19:10;;;;;;;17.58;13.00;;;;;;;22.31;57.90;101793.72;5001327;28;20060;-83
2021/09/06 08:21:38;;;;;;;15.45;11.63;;;;;;;22.53;57.14;101799.09;4998792;28;20056;-89
2021/09/06 08:24:06;;;;;;;17.17;12.75;;;;;;;22.85;55.88;101790.66;5002920;28;20120;-85
2021/09/06 08:26:33;;;;;;;17.35;13.88;;;;;;;22.86;55.21;101795.06;5003608;28;20049;-85
2021/09/06 08:28:59;;;;;;;19.63;13.35;;;;;;;23.12;54.70;101796.63;5000858;28;20068;-83
2021/09/06 08:31:29;;;;;;;14.93;12.30;;;;;;;23.61;53.47;101793.59;4978937;28;20218;-85
2021/09/06 08:34:02;;;;;;;15.52;11.00;;;;;;;24.07;52.33;101794.13;5019505;28;20051;-83
2021/09/06 08:36:32;;;;;;;18.35;11.80;;;;;;;24.17;51.76;101791.91;4999613;28;20052;-84
2021/09/06 08:39:02;;;;;;;17.05;12.27;;;;;;;24.53;50.54;101799.03;4987938;28;20045;-85
2021/09/06 08:41:35;;;;;;;16.27;13.55;;;;;;;24.96;49.27;101796.03;5006633;28;20041;-88
2021/09/06 08:44:05;;;;;;;19.85;15.07;;;;;;;25.36;47.94;101799.34;5011167;28;20045;-89
2021/09/06 08:46:32;;;;;;;13.20;11.88;;;;;;;25.71;47.45;101807.28;5006796;28;20054;-87
2021/09/06 08:49:00;;;;;;;18.77;13.80;;;;;;;26.23;46.31;101810.72;5004699;28;20111;-82
2021/09/06 08:51:27;;;;;;;15.73;13.32;;;;;;;26.52;45.37;101813.56;4998845;28;20116;-83
2021/09/06 08:53:54;;;;;;;19.63;13.13;;;;;;;26.74;44.70;101807.84;5006992;28;20050;-89
2021/09/06 08:56:22;;;;;;;14.50;12.40;;;;;;;27.17;43.85;101810.63;5013724;28;20463;-85
2021/09/06 08:58:49;;;;;;;15.43;13.68;;;;;;;27.40;43.48;101814.63;5011176;28;20543;-83
2021/09/06 09:01:21;;;;;;;16.85;14.18;;;;;;;27.52;42.78;101814.78;5011658;28;20147;-84
2021/09/06 09:03:48;;;;;;;19.95;14.70;;;;;;;27.75;41.90;101815.19;5011573;28;20045;-86
2021/09/06 09:06:15;;;;;;;15.32;12.00;;;;;;;27.68;41.91;101822.78;4991662;28;20549;-84
2021/09/06 09:08:46;;;;;;;18.20;13.73;;;;;;;28.02;41.05;101823.34;4994361;28;20045;-88
2021/09/06 09:11:13;;;;;;;17.48;14.43;;;;;;;28.50;40.48;101825.59;5007744;28;20052;-85
2021/09/06 09:13:40;;;;;;;14.95;12.75;;;;;;;29.05;39.26;101821.03;4981808;28;20057;-87
2021/09/06 09:16:08;;;;;;;15.00;13.50;;;;;;;29.66;38.11;101825.81;4996668;28;20045;-92
2021/09/06 09:18:36;;;;;;;17.92;14.57;;;;;;;29.85;37.43;101828.91;5003549;28;20049;-90
2021/09/06 09:21:11;;;;;;;16.45;13.50;;;;;;;30.17;36.59;101832.97;4996441;28;20050;-89
2021/09/06 09:23:44;;;;;;;26.48;21.45;;;;;;;30.56;35.98;101835.53;4996436;28;20052;-84
2021/09/06 09:26:12;;;;;;;21.45;17.05;;;;;;;30.44;35.46;101830.06;4984947;28;20091;-84
2021/09/06 09:28:43;;;;;;;18.00;15.10;;;;;;;30.10;35.56;101824.44;5000434;28;20045;-83
2021/09/06 09:31:16;;;;;;;18.02;15.70;;;;;;;29.93;35.49;101827.53;5000991;28;20132;-89
2021/09/06 09:33:52;;;;;;;18.70;16.55;;;;;;;29.77;34.93;101822.34;4985288;28;20180;-84
2021/09/06 09:36:36;;;;;;;18.55;15.15;;;;;;;29.32;35.25;101825.50;5002461;28;20061;-84
2021/09/06 09:39:14;;;;;;;17.85;14.65;;;;;;;28.90;35.41;101820.25;5003449;28;20569;-84
2021/09/06 09:41:43;;;;;;;15.43;13.38;;;;;;;28.59;36.76;101824.13;4985201;28;20485;-84
2021/09/06 09:44:20;;;;;;;17.00;12.65;;;;;;;29.00;36.09;101821.34;5017750;28;20053;-85
2021/09/06 09:47:03;;;;;;;17.08;15.00;;;;;;;29.84;34.62;101815.50;4978317;28;20053;-82
2021/09/06 09:49:34;;;;;;;17.98;14.05;;;;;;;30.66;33.78;101818.53;4990427;28;20583;-84
2021/09/06 09:52:01;;;;;;;15.65;14.02;;;;;;;31.04;33.20;101812.97;4980452;28;20045;-82
2021/09/06 09:54:28;;;;;;;16.13;13.85;;;;;;;31.32;32.54;101814.41;4957937;28;20604;-89
2021/09/06 09:56:55;;;;;;;16.83;13.68;;;;;;;31.86;32.07;101810.09;4958589;28;20046;-83
2021/09/06 09:59:21;;;;;;;21.60;15.40;;;;;;;32.49;30.82;101809.50;4984506;28;20408;-85
2021/09/06 10:02:05;;;;;;;18.17;14.38;;;;;;;32.58;30.32;101811.41;4982363;28;20042;-87
2021/09/06 10:04:36;;;;;;;14.85;12.85;;;;;;;32.55;31.05;101808.09;4965181;28;20142;-91
2021/09/06 10:07:04;;;;;;;17.13;12.98;;;;;;;32.86;30.82;101808.22;4983486;28;20042;-87
2021/09/06 10:09:45;;;;;;;16.05;13.23;;;;;;;33.02;30.25;101807.75;4981852;28;20096;-87
2021/09/06 10:12:22;;;;;;;16.45;13.88;;;;;;;32.93;30.65;101804.84;4981870;28;20049;-84
2021/09/06 10:15:05;;;;;;;18.25;14.10;;;;;;;32.51;30.58;101803.94;4989322;28;20041;-87
2021/09/06 10:17:39;;;;;;;;;;;;;;;32.20;31.20;101804.63;4982044;28;20046;-91
2021/09/06 10:20:12;;;;;;;18.70;13.32;;;;;;;32.10;31.49;101804.53;4973088;28;19925;-86
2021/09/06 10:22:47;;;;;;;16.60;14.77;;;;;;;32.03;31.35;101799.75;4977546;28;20049;-90
2021/09/06 10:25:20;;;;;;;17.13;13.25;;;;;;;31.88;31.44;101797.31;4997354;28;20085;-87
2021/09/06 10:27:57;;;;;;;18.40;14.18;;;;;;;31.69;31.82;101797.09;4979949;28;20056;-87
2021/09/06 10:30:44;;;;;;;15.57;13.93;;;;;;;31.31;31.75;101799.16;4967217;28;20053;-87
2021/09/06 10:33:27;;;;;;;18.33;13.85;;;;;;;30.35;32.93;101795.59;4988479;28;20065;-88
2021/09/06 10:36:21;;;;;;;18.08;13.70;;;;;;;29.44;33.99;101802.19;4985984;28;20370;-89
2021/09/06 10:38:57;;;;;;;19.08;16.10;;;;;;;29.13;34.24;101807.88;4983180;28;20041;-91
2021/09/06 10:41:24;;;;;;;19.50;15.38;;;;;;;29.50;34.23;101799.06;4961775;28;20046;-88
2021/09/06 10:43:59;;;;;;;18.80;15.07;;;;;;;30.46;31.90;101803.81;4969099;28;20053;-89
2021/09/06 10:46:29;;;;;;;17.55;14.73;;;;;;;31.29;30.79;101801.97;4957654;28;20061;-86
2021/09/06 10:48:56;;;;;;;22.02;16.38;;;;;;;32.15;29.64;101801.41;4968419;28;20053;-89
2021/09/06 10:51:33;;;;;;;22.00;16.48;;;;;;;32.75;28.30;101796.44;4986279;28;20141;-92
2021/09/06 10:54:08;;;;;;;18.45;15.88;;;;;;;33.18;27.89;101791.88;4983481;28;20060;-89
2021/09/06 10:56:36;;;;;;;15.45;13.98;;;;;;;33.79;27.14;101790.13;4983591;28;20049;-85
2021/09/06 10:59:03;;;;;;;16.38;14.55;;;;;;;34.51;26.22;101787.25;4982348;28;20104;-84
2021/09/06 11:01:32;;;;;;;17.52;15.25;;;;;;;35.28;25.36;101779.97;4995977;28;20472;-88
2021/09/06 11:03:59;;;;;;;18.35;15.90;;;;;;;35.84;24.59;101789.03;4989928;28;20042;-87
2021/09/06 11:06:31;;;;;;;19.80;16.88;;;;;;;35.87;24.17;101787.91;4977831;28;20085;-85
2021/09/06 11:09:00;;;;;;;16.90;13.70;;;;;;;35.38;24.29;101780.81;4980341;28;20053;-82
2021/09/06 11:11:33;;;;;;;17.92;16.00;;;;;;;35.56;23.81;101782.75;4980554;28;20125;-87